Time;durP1;ratioP1;P1;durP2;ratioP2;P2;SDS_P1;SDS_P2;PMS_P1;PMS_P2;Temp;Humidity;BMP_temperature;BMP_pressure;BME280_temperature;BME280_humidity;BME280_pressure;Samples;Min_cycle;Max_cycle;Signal;HPM_P1;HPM_P2
2022/07/22 00:01:20;;;;;;;6.37;5.83;;;;;;;25.48;43.54;100965.64;1657478;86;21486;-79
2022/07/22 00:03:47;;;;;;;6.62;6.12;;;;;;;25.46;43.62;100968.06;1657779;86;21649;-79
2022/07/22 00:06:14;;;;;;;7.53;5.80;;;;;;;25.40;43.78;100979.46;1657016;86;21716;-79
2022/07/22 00:08:41;;;;;;;6.85;6.25;;;;;;;25.33;43.88;100972.06;1657176;85;21054;-79
2022/07/22 00:11:07;;;;;;;7.62;6.67;;;;;;;25.44;43.96;100983.21;1657767;85;21062;-79
2022/07/22 00:13:36;;;;;;;7.70;5.75;;;;;;;25.46;44.04;100981.30;1657244;85;21050;-79
2022/07/22 00:16:02;;;;;;;8.93;6.67;;;;;;;25.43;44.19;100990.31;1657840;86;21014;-79
2022/07/22 00:18:29;;;;;;;7.25;6.53;;;;;;;25.40;44.23;100996.67;1657141;85;21671;-79
2022/07/22 00:20:56;;;;;;;8.95;6.17;;;;;;;25.36;44.40;100997.00;1657478;86;21247;-79
2022/07/22 00:23:22;;;;;;;7.17;6.47;;;;;;;25.29;44.56;101007.66;1657397;85;21603;-79
2022/07/22 00:25:48;;;;;;;7.92;6.28;;;;;;;25.27;44.65;101014.38;1657269;85;21527;-79
2022/07/22 00:28:14;;;;;;;6.83;6.20;;;;;;;25.26;44.76;101015.81;1657863;86;21045;-79
2022/07/22 00:30:41;;;;;;;6.83;5.85;;;;;;;25.25;44.88;101009.67;1657573;85;21146;-79
2022/07/22 00:33:13;;;;;;;6.03;5.50;;;;;;;25.26;44.96;101003.91;1678867;85;21014;-80
2022/07/22 00:35:39;;;;;;;9.10;6.50;;;;;;;25.20;45.11;101006.51;1665497;84;20954;-79
2022/07/22 00:38:05;;;;;;;6.05;5.50;;;;;;;25.15;45.26;101011.28;1657277;85;23170;-79
2022/07/22 00:40:32;;;;;;;5.75;5.35;;;;;;;25.10;45.37;101014.73;1639432;86;21527;-79
2022/07/22 00:42:59;;;;;;;6.25;5.40;;;;;;;25.05;45.50;101012.41;1657422;86;21113;-79
2022/07/22 00:45:26;;;;;;;5.55;5.15;;;;;;;25.04;45.67;101004.57;1660845;85;21054;-79
2022/07/22 00:47:52;;;;;;;7.80;5.22;;;;;;;25.05;45.80;101007.59;1619440;88;21122;-79
2022/07/22 00:50:20;;;;;;;5.75;5.15;;;;;;;25.05;45.81;101007.11;1622830;87;21139;-79
2022/07/22 00:52:48;;;;;;;7.60;5.10;;;;;;;25.01;45.98;101011.40;1630814;85;21050;-79
2022/07/22 00:55:14;;;;;;;;;;;;;;;24.97;46.16;101008.12;1596895;88;20986;-79
2022/07/22 00:57:41;;;;;;;8.00;5.58;;;;;;;24.95;46.40;101006.06;1616628;87;20155;-79
2022/07/22 01:00:13;;;;;;;5.42;4.95;;;;;;;24.92;46.23;101014.69;1643018;86;20929;-79
2022/07/22 01:02:40;;;;;;;5.62;5.15;;;;;;;24.91;46.37;101020.93;1643231;85;20951;-79
2022/07/22 01:05:07;;;;;;;5.58;5.12;;;;;;;24.88;46.53;101028.60;1643053;86;20966;-79
2022/07/22 01:07:33;;;;;;;6.92;5.33;;;;;;;24.88;46.67;101034.37;1642863;87;20878;-79
2022/07/22 01:09:59;;;;;;;5.55;5.05;;;;;;;24.86;46.80;101042.89;1650317;85;20946;-79
2022/07/22 01:12:26;;;;;;;8.63;5.65;;;;;;;24.83;46.67;101055.84;1646077;85;20889;-79
2022/07/22 01:14:53;;;;;;;5.62;5.22;;;;;;;24.81;47.04;101049.81;1643207;86;20921;-79
2022/07/22 01:17:19;;;;;;;5.95;5.42;;;;;;;24.84;47.14;101052.73;1643208;86;20910;-79
2022/07/22 01:19:46;;;;;;;5.87;5.43;;;;;;;24.85;47.23;101051.77;1643221;86;20953;-79
2022/07/22 01:22:12;;;;;;;;;;;;;;;24.85;47.28;101039.88;1645823;85;21508;-79
2022/07/22 01:24:38;;;;;;;7.22;5.28;;;;;;;24.81;47.52;101025.16;1643403;85;20167;-79
2022/07/22 01:27:04;;;;;;;6.67;5.97;;;;;;;24.75;47.39;101016.69;1633838;87;20982;-79
2022/07/22 01:29:30;;;;;;;6.15;5.65;;;;;;;24.75;47.51;101015.38;1644130;85;20898;-79
2022/07/22 01:31:56;;;;;;;9.73;5.28;;;;;;;24.75;47.57;101011.41;1655067;85;20930;-79
2022/07/22 01:34:23;;;;;;;6.85;5.83;;;;;;;24.73;47.66;100996.59;1633128;87;20894;-79
2022/07/22 01:36:49;;;;;;;5.80;5.40;;;;;;;24.55;47.78;100964.33;1643407;85;20902;-79
2022/07/22 01:39:16;;;;;;;6.05;5.55;;;;;;;24.68;47.87;101005.31;1643554;86;20954;-79
2022/07/22 01:41:44;;;;;;;5.83;5.33;;;;;;;24.65;47.95;100989.66;1643594;85;20914;-79
2022/07/22 01:44:10;;;;;;;5.55;5.12;;;;;;;24.62;48.09;100997.33;1650926;85;20997;-79
2022/07/22 01:46:36;;;;;;;6.03;5.45;;;;;;;24.62;48.20;101020.28;1655883;83;21108;-79
2022/07/22 01:49:04;;;;;;;6.00;5.60;;;;;;;24.60;48.32;101008.96;1641552;86;21021;-79
2022/07/22 01:51:30;;;;;;;6.72;5.90;;;;;;;24.59;48.39;100997.53;1645084;84;21077;-79
2022/07/22 01:53:56;;;;;;;5.95;5.45;;;;;;;24.52;48.57;100981.72;1643729;86;21102;-79
2022/07/22 01:56:22;;;;;;;6.10;5.58;;;;;;;24.46;48.72;100982.13;1643463;86;21128;-79
2022/07/22 01:58:49;;;;;;;6.77;6.07;;;;;;;24.43;48.83;100985.50;1655846;85;21787;-79
2022/07/22 02:01:15;;;;;;;6.20;5.60;;;;;;;24.39;49.04;100979.56;1659370;85;21144;-79
2022/07/22 02:03:44;;;;;;;6.28;5.78;;;;;;;24.35;49.15;100972.80;1643012;86;21080;-79
2022/07/22 02:06:10;;;;;;;5.77;5.37;;;;;;;24.31;49.30;100962.06;1643521;85;21125;-79
2022/07/22 02:08:36;;;;;;;6.12;5.53;;;;;;;24.30;49.41;100978.87;1643647;85;21096;-79
2022/07/22 02:11:03;;;;;;;5.90;5.40;;;;;;;24.28;49.54;100975.01;1642556;85;21068;-79
2022/07/22 02:13:29;;;;;;;6.22;5.80;;;;;;;24.24;49.63;100967.35;1652999;85;21717;-79
2022/07/22 02:15:55;;;;;;;7.03;6.43;;;;;;;24.21;49.76;100963.13;1645682;86;21049;-79
2022/07/22 02:18:21;;;;;;;5.60;5.20;;;;;;;24.19;49.83;100953.13;1643702;87;21102;-79
2022/07/22 02:20:47;;;;;;;6.35;5.85;;;;;;;24.15;49.92;100959.56;1643887;86;21076;-79
2022/07/22 02:23:14;;;;;;;5.65;5.17;;;;;;;24.14;50.10;100960.98;1629064;85;21081;-79
2022/07/22 02:25:41;;;;;;;6.00;5.50;;;;;;;24.15;50.20;100958.72;1642092;87;21339;-79
2022/07/22 02:28:09;;;;;;;6.80;6.20;;;;;;;24.15;50.29;100963.53;1644948;86;20920;-79
2022/07/22 02:30:35;;;;;;;6.10;5.60;;;;;;;24.16;50.36;100961.73;1648729;85;21357;-79
2022/07/22 02:33:02;;;;;;;7.15;6.08;;;;;;;24.11;50.46;100971.29;1645250;86;21005;-79
2022/07/22 02:35:28;;;;;;;6.47;5.97;;;;;;;24.10;50.58;100986.30;1634220;86;20939;-79
2022/07/22 02:37:54;;;;;;;6.35;5.85;;;;;;;24.07;50.72;100989.14;1637831;85;20959;-79
2022/07/22 02:40:20;;;;;;;6.47;5.90;;;;;;;24.06;50.83;100984.80;1665656;85;20978;-79
2022/07/22 02:42:47;;;;;;;6.12;5.62;;;;;;;24.08;50.88;100988.67;1610829;87;21140;-79
2022/07/22 02:45:13;;;;;;;8.73;6.07;;;;;;;24.06;50.96;101001.98;1623613;86;21073;-79
2022/07/22 02:47:52;;;;;;;7.17;5.50;;;;;;;24.05;51.07;101020.09;1631772;85;21076;-79
2022/07/22 02:50:18;;;;;;;6.42;5.92;;;;;;;24.04;51.17;101043.98;1638461;87;20971;-79
2022/07/22 02:52:45;;;;;;;6.72;6.15;;;;;;;24.02;51.27;101064.37;1676255;84;21085;-79
2022/07/22 02:55:11;;;;;;;6.80;6.20;;;;;;;24.04;51.35;101063.80;1680884;84;21068;-79
2022/07/22 02:57:52;;;;;;;12.25;7.53;;;;;;;24.03;51.39;101050.21;1645278;86;21061;-79
2022/07/22 03:00:18;;;;;;;6.80;6.30;;;;;;;24.00;51.53;101036.73;1608127;88;21484;-79
2022/07/22 03:02:45;;;;;;;10.08;6.72;;;;;;;23.99;51.63;101035.03;1644903;85;21058;-79
2022/07/22 03:05:12;;;;;;;7.95;7.12;;;;;;;23.97;51.83;101045.33;1648605;86;21119;-79
2022/07/22 03:07:38;;;;;;;8.30;7.47;;;;;;;23.97;52.04;101044.85;1618269;87;21139;-79
2022/07/22 03:10:05;;;;;;;13.32;7.28;;;;;;;23.94;52.30;101036.28;1657874;85;21142;-79
2022/07/22 03:12:32;;;;;;;7.90;7.20;;;;;;;23.89;52.46;101024.72;1657359;85;21077;-79
2022/07/22 03:14:58;;;;;;;8.37;7.67;;;;;;;23.84;52.59;101012.28;1657652;85;21104;-79
2022/07/22 03:17:24;;;;;;;9.18;8.05;;;;;;;23.80;52.75;101005.98;1634353;85;21061;-79
2022/07/22 03:19:55;;;;;;;9.73;8.08;;;;;;;23.73;52.81;101021.38;1646624;85;21014;-80
2022/07/22 03:22:21;;;;;;;8.45;7.70;;;;;;;23.62;53.08;101040.54;1657431;86;21050;-80
2022/07/22 03:24:47;;;;;;;7.97;7.17;;;;;;;23.60;53.28;101031.02;1657774;85;21128;-80
2022/07/22 03:27:13;;;;;;;9.47;8.10;;;;;;;23.59;53.32;101026.69;1657597;85;21062;-80
2022/07/22 03:29:39;;;;;;;8.28;7.47;;;;;;;23.54;53.49;101026.13;1657486;85;21131;-80
2022/07/22 03:32:09;;;;;;;9.63;7.70;;;;;;;23.44;53.63;101010.84;1657173;85;21094;-80
2022/07/22 03:34:35;;;;;;;14.33;8.55;;;;;;;23.40;53.77;101000.09;1634238;85;21507;-80
2022/07/22 03:37:02;;;;;;;12.82;9.08;;;;;;;23.37;53.89;100987.60;1657564;86;21111;-80
2022/07/22 03:39:28;;;;;;;10.88;9.28;;;;;;;23.32;53.97;100982.61;1657078;85;21322;-80
2022/07/22 03:41:54;;;;;;;10.82;8.63;;;;;;;23.24;54.18;100974.80;1657573;86;21068;-80
2022/07/22 03:44:21;;;;;;;8.80;8.10;;;;;;;23.18;54.37;100972.55;1657615;85;21131;-80
2022/07/22 03:46:47;;;;;;;9.90;9.10;;;;;;;23.14;54.52;100974.53;1657623;85;21143;-80
2022/07/22 03:49:13;;;;;;;9.27;8.47;;;;;;;23.15;54.74;100977.55;1657552;85;21231;-80
2022/07/22 03:51:41;;;;;;;10.00;9.03;;;;;;;23.14;54.81;100988.20;1656940;85;21096;-80
2022/07/22 03:54:07;;;;;;;;;;;;;;;23.11;54.97;101012.98;1691864;83;21064;-80
2022/07/22 03:56:33;;;;;;;11.50;8.93;;;;;;;23.14;55.48;101023.34;1683889;84;20127;-80
2022/07/22 03:59:05;;;;;;;10.08;8.53;;;;;;;23.16;55.05;101025.41;1683563;83;21120;-80
2022/07/22 04:01:31;;;;;;;9.40;8.50;;;;;;;23.14;55.19;101029.94;1684242;84;20940;-80
2022/07/22 04:03:58;;;;;;;10.43;9.40;;;;;;;23.17;55.32;101035.49;1684221;83;21096;-80
2022/07/22 04:06:26;;;;;;;10.20;9.30;;;;;;;23.20;55.40;101041.43;1683833;84;21697;-80
2022/07/22 04:08:52;;;;;;;10.70;9.67;;;;;;;23.23;55.50;101037.75;1684329;84;20961;-80
2022/07/22 04:11:18;;;;;;;11.70;10.37;;;;;;;23.19;55.58;101034.92;1684018;83;20974;-80
2022/07/22 04:13:44;;;;;;;11.78;10.63;;;;;;;23.16;55.71;101030.69;1687361;83;21334;-80
2022/07/22 04:16:10;;;;;;;10.93;10.03;;;;;;;23.16;55.75;101032.01;1692749;83;20943;-80
2022/07/22 04:18:36;;;;;;;11.17;10.07;;;;;;;23.16;55.90;101025.88;1684300;84;21106;-80
2022/07/22 04:21:02;;;;;;;13.38;10.23;;;;;;;23.16;56.00;101016.17;1684347;84;21031;-80
2022/07/22 04:23:28;;;;;;;10.72;9.73;;;;;;;23.12;56.09;101021.27;1684009;84;20985;-80
2022/07/22 04:25:54;;;;;;;11.87;10.53;;;;;;;23.10;56.28;101021.83;1683147;84;21030;-80
2022/07/22 04:28:21;;;;;;;13.18;10.18;;;;;;;23.11;56.30;101011.19;1689613;83;39147;-80
2022/07/22 04:30:48;;;;;;;12.27;11.20;;;;;;;23.05;56.49;101002.80;1684886;83;20985;-80
2022/07/22 04:33:14;;;;;;;12.17;10.83;;;;;;;23.04;56.65;101004.59;1690455;83;21056;-80
2022/07/22 04:35:40;;;;;;;11.60;10.50;;;;;;;23.09;56.72;101016.17;1686901;83;21048;-80
2022/07/22 04:38:06;;;;;;;10.27;9.47;;;;;;;23.14;56.83;101012.78;1686463;83;21082;-80
2022/07/22 04:40:32;;;;;;;12.87;11.33;;;;;;;23.14;56.83;101012.78;1682281;83;21401;-80
2022/07/22 04:43:01;;;;;;;11.43;10.53;;;;;;;23.16;56.91;101011.38;1683994;84;21056;-80
2022/07/22 04:45:28;;;;;;;12.60;11.40;;;;;;;23.20;57.08;101016.84;1684387;84;20965;-80
2022/07/22 04:47:54;;;;;;;13.20;10.93;;;;;;;23.24;57.13;101023.15;1684157;85;21056;-80
2022/07/22 04:50:28;;;;;;;13.25;12.05;;;;;;;23.27;57.24;101027.39;1687493;83;21040;-80
2022/07/22 04:52:54;;;;;;;17.83;12.07;;;;;;;23.30;57.34;101032.00;1688775;83;20898;-80
2022/07/22 04:55:20;;;;;;;13.50;12.20;;;;;;;23.34;57.39;101031.34;1696274;84;21068;-80
2022/07/22 04:57:48;;;;;;;14.35;12.58;;;;;;;23.37;57.47;101033.78;1695689;83;21066;-79
2022/07/22 05:00:16;;;;;;;14.45;13.13;;;;;;;23.39;57.56;101032.75;1695547;83;21556;-79
2022/07/22 05:02:43;;;;;;;16.40;14.93;;;;;;;23.41;57.73;101033.94;1697126;83;20954;-79
2022/07/22 05:05:09;;;;;;;18.30;16.55;;;;;;;23.44;57.86;101039.03;1704983;83;21134;-80
2022/07/22 05:07:36;;;;;;;18.02;16.32;;;;;;;23.48;58.02;101039.20;1696260;84;20934;-80
2022/07/22 05:10:05;;;;;;;22.73;20.30;;;;;;;23.60;58.12;101033.19;1695803;83;21509;-80
2022/07/22 05:12:31;;;;;;;25.48;21.70;;;;;;;23.73;58.25;101042.03;1690855;83;21124;-80
2022/07/22 05:14:58;;;;;;;26.10;20.43;;;;;;;23.90;58.36;101047.55;1696416;83;21044;-80
2022/07/22 05:17:25;;;;;;;22.13;19.75;;;;;;;24.20;58.47;101052.59;1696060;83;21041;-80
2022/07/22 05:19:51;;;;;;;20.97;18.77;;;;;;;24.58;58.54;101056.66;1725545;82;21007;-80
2022/07/22 05:22:17;;;;;;;19.97;18.00;;;;;;;25.01;58.47;101056.38;1703510;82;21093;-80
2022/07/22 05:24:43;;;;;;;19.50;17.33;;;;;;;25.43;58.46;101051.21;1696429;84;20965;-80
2022/07/22 05:27:09;;;;;;;18.43;16.30;;;;;;;25.85;58.42;101058.36;1696463;84;20930;-80
2022/07/22 05:29:35;;;;;;;17.75;15.55;;;;;;;26.29;58.40;101059.88;1697496;83;21053;-80
2022/07/22 05:32:02;;;;;;;18.00;16.15;;;;;;;26.73;58.32;101060.98;1695735;82;21123;-80
2022/07/22 05:34:28;;;;;;;16.83;15.20;;;;;;;27.18;58.21;101057.91;1689866;83;21106;-80
2022/07/22 05:36:54;;;;;;;15.08;13.20;;;;;;;27.47;58.03;101062.73;1695588;83;21240;-80
2022/07/22 05:39:20;;;;;;;13.78;12.55;;;;;;;27.79;57.99;101055.68;1693401;84;21037;-81
2022/07/22 05:41:46;;;;;;;12.03;10.30;;;;;;;28.09;57.86;101056.28;1688383;83;21049;-81
2022/07/22 05:44:12;;;;;;;11.95;10.65;;;;;;;28.43;57.69;101067.67;1687830;83;21286;-81
2022/07/22 05:46:38;;;;;;;11.18;10.28;;;;;;;28.69;57.62;101072.09;1695709;83;21089;-81
2022/07/22 05:49:05;;;;;;;14.73;10.28;;;;;;;28.98;57.50;101073.15;1687776;83;21111;-80
2022/07/22 05:51:31;;;;;;;11.00;10.08;;;;;;;29.28;57.34;101070.95;1696804;83;21436;-80
2022/07/22 05:53:57;;;;;;;11.55;10.63;;;;;;;29.58;57.16;101071.45;1708494;82;20961;-80
2022/07/22 05:56:24;;;;;;;11.40;10.32;;;;;;;29.82;56.92;101075.05;1687656;84;21037;-80
2022/07/22 05:58:50;;;;;;;14.50;9.95;;;;;;;30.08;56.73;101070.07;1686451;83;21093;-80
2022/07/22 06:01:16;;;;;;;14.25;10.70;;;;;;;30.27;56.44;101069.20;1690532;83;21441;-80
2022/07/22 06:03:42;;;;;;;16.23;10.85;;;;;;;30.46;56.13;101069.20;1709861;83;20904;-80
2022/07/22 06:06:08;;;;;;;12.65;11.35;;;;;;;30.62;55.98;101069.98;1693686;83;21616;-80
2022/07/22 06:08:36;;;;;;;12.85;11.55;;;;;;;30.67;55.61;101066.39;1702626;83;21609;-80
2022/07/22 06:11:03;;;;;;;11.12;10.13;;;;;;;30.82;55.50;101060.08;1698254;83;20930;-80
2022/07/22 06:13:29;;;;;;;11.55;10.15;;;;;;;31.01;55.21;101056.52;1690790;83;21072;-80
2022/07/22 06:15:57;;;;;;;12.10;10.80;;;;;;;31.17;55.08;101060.78;1696100;83;21538;-80
2022/07/22 06:18:23;;;;;;;;;;;;;;;31.36;54.79;101056.66;1696116;83;21121;-80
2022/07/22 06:20:49;;;;;;;11.48;10.55;;;;;;;31.46;54.15;101052.10;1697594;82;20793;-80
2022/07/22 06:23:15;;;;;;;11.38;10.45;;;;;;;31.56;54.34;101054.23;1700308;83;21493;-80
2022/07/22 06:25:42;;;;;;;13.43;11.38;;;;;;;31.70;54.13;101048.06;1692937;83;21101;-80
2022/07/22 06:28:11;;;;;;;12.25;11.20;;;;;;;31.85;53.91;101049.19;1686494;82;21643;-80
2022/07/22 06:30:39;;;;;;;11.43;10.40;;;;;;;32.00;53.53;101049.01;1698112;83;21308;-80
2022/07/22 06:33:05;;;;;;;11.78;10.82;;;;;;;32.11;53.32;101044.77;1679772;83;21584;-80
2022/07/22 06:35:31;;;;;;;12.40;11.30;;;;;;;32.21;53.06;101042.85;1685360;83;21136;-80
2022/07/22 06:37:57;;;;;;;10.78;9.88;;;;;;;32.41;52.72;101044.02;1698098;83;21711;-80
2022/07/22 06:40:23;;;;;;;12.20;11.10;;;;;;;32.51;52.59;101040.25;1690286;83;21624;-80
2022/07/22 06:42:49;;;;;;;13.55;12.30;;;;;;;32.76;52.33;101042.60;1694556;83;20986;-80
2022/07/22 06:45:16;;;;;;;13.22;12.03;;;;;;;32.98;52.00;101039.05;1691917;83;21541;-80
2022/07/22 06:47:42;;;;;;;;;;;;;;;33.02;51.69;101037.23;1699331;83;20977;-80
2022/07/22 06:50:11;;;;;;;10.78;9.78;;;;;;;33.07;51.34;101028.70;1685718;83;20599;-80
2022/07/22 06:52:43;;;;;;;11.80;10.85;;;;;;;33.07;51.33;101036.75;1648320;85;20950;-80
2022/07/22 06:55:10;;;;;;;11.33;10.05;;;;;;;33.26;51.09;101033.82;1649444;85;21097;-80
2022/07/22 06:57:36;;;;;;;12.37;11.28;;;;;;;33.49;50.71;101030.05;1642988;85;21572;-80
2022/07/22 07:00:08;;;;;;;12.65;10.55;;;;;;;33.76;50.34;101028.95;1647091;85;21571;-80
2022/07/22 07:02:35;;;;;;;12.13;10.90;;;;;;;33.99;50.10;101029.15;1643195;86;21455;-80
2022/07/22 07:05:02;;;;;;;11.78;10.88;;;;;;;34.18;49.65;101028.83;1641424;86;20922;-80
2022/07/22 07:07:31;;;;;;;13.30;11.00;;;;;;;34.36;49.31;101032.69;1616630;86;21769;-80
2022/07/22 07:09:57;;;;;;;12.20;11.05;;;;;;;34.34;48.95;101031.52;1631195;86;21469;-80
2022/07/22 07:12:23;;;;;;;13.00;11.43;;;;;;;34.35;48.63;101026.98;1639480;86;21385;-80
2022/07/22 07:14:49;;;;;;;11.78;10.68;;;;;;;34.41;48.36;101023.11;1622206;87;21475;-80
2022/07/22 07:17:15;;;;;;;12.47;11.25;;;;;;;34.53;48.29;101024.45;1634514;86;20878;-80
2022/07/22 07:19:42;;;;;;;12.15;10.95;;;;;;;34.85;47.95;101020.02;1648370;85;21429;-80
2022/07/22 07:22:08;;;;;;;11.08;10.08;;;;;;;35.13;47.44;101023.95;1612376;87;20922;-80
2022/07/22 07:24:35;;;;;;;12.35;11.08;;;;;;;35.32;47.39;101020.54;1664343;84;21395;-80
2022/07/22 07:27:01;;;;;;;11.38;10.28;;;;;;;35.64;47.08;101018.98;1689334;83;21509;-80
2022/07/22 07:29:27;;;;;;;9.80;9.00;;;;;;;35.74;46.78;100977.05;1687876;83;21053;-80
2022/07/22 07:31:53;;;;;;;10.88;9.33;;;;;;;36.16;46.38;101023.66;1680385;83;21712;-80
2022/07/22 07:34:19;;;;;;;9.98;9.18;;;;;;;35.94;46.08;101032.58;1685520;83;21437;-80
2022/07/22 07:36:45;;;;;;;10.20;8.95;;;;;;;36.09;45.80;101019.50;1679409;84;21560;-80
2022/07/22 07:39:12;;;;;;;9.70;9.00;;;;;;;36.19;45.38;101021.11;1687011;83;21109;-80
2022/07/22 07:41:38;;;;;;;8.65;7.95;;;;;;;36.13;44.86;101022.16;1693841;83;21099;-80
2022/07/22 07:44:06;;;;;;;;;;;;;;;36.20;44.60;101027.66;1649284;85;21681;-80
2022/07/22 07:46:32;;;;;;;8.03;7.37;;;;;;;36.16;44.34;101022.31;1613026;87;20291;-80
2022/07/22 07:48:58;;;;;;;7.92;7.12;;;;;;;36.01;43.92;101020.08;1611621;87;21500;-78
2022/07/22 07:51:24;;;;;;;7.60;7.00;;;;;;;35.90;43.49;101027.23;1624934;87;21117;-78
2022/07/22 07:53:50;;;;;;;6.55;6.08;;;;;;;35.95;43.12;101020.29;1623705;86;21097;-78
2022/07/22 07:56:20;;;;;;;7.03;6.33;;;;;;;35.90;42.78;101023.19;1693132;83;21128;-78
2022/07/22 07:58:46;;;;;;;7.45;5.97;;;;;;;35.88;42.34;101022.02;1692424;83;29515;-78
2022/07/22 08:01:12;;;;;;;10.13;6.30;;;;;;;36.05;42.16;101019.54;1669515;84;21461;-78
2022/07/22 08:03:39;;;;;;;7.10;6.58;;;;;;;36.17;41.63;101024.49;1675580;84;21032;-78
2022/07/22 08:06:06;;;;;;;9.35;6.12;;;;;;;36.17;41.28;101018.59;1678410;84;22113;-78
2022/07/22 08:08:32;;;;;;;6.28;5.78;;;;;;;36.30;40.86;101026.09;1689805;83;21046;-78
2022/07/22 08:10:58;;;;;;;7.70;6.92;;;;;;;36.31;40.60;101029.12;1685084;83;21106;-78
2022/07/22 08:13:24;;;;;;;6.83;6.03;;;;;;;36.42;40.53;101025.95;1688413;83;20918;-78
2022/07/22 08:15:57;;;;;;;6.08;5.58;;;;;;;36.45;40.06;101025.08;1686445;84;21060;-78
2022/07/22 08:18:23;;;;;;;;;;;;;;;36.60;39.81;101029.14;1692359;84;21617;-78
2022/07/22 08:20:49;;;;;;;5.85;5.30;;;;;;;36.63;39.53;101030.13;1683765;84;20297;-78
2022/07/22 08:23:15;;;;;;;6.05;5.50;;;;;;;36.75;39.44;101037.28;1682371;83;21644;-78
2022/07/22 08:25:41;;;;;;;6.85;5.70;;;;;;;36.81;38.77;101031.66;1682813;83;20981;-78
2022/07/22 08:28:14;;;;;;;5.92;5.28;;;;;;;36.74;38.82;101035.09;1679431;83;20977;-78
2022/07/22 08:30:40;;;;;;;6.03;5.35;;;;;;;36.94;38.33;101029.12;1674665;83;21468;-78
2022/07/22 08:33:08;;;;;;;7.58;5.65;;;;;;;37.13;38.07;101033.43;1695047;83;21076;-78
2022/07/22 08:35:35;;;;;;;6.95;6.35;;;;;;;37.32;37.82;101033.39;1650231;85;20880;-78
2022/07/22 08:38:01;;;;;;;5.95;5.50;;;;;;;37.55;37.45;101033.73;1620791;86;20929;-78
2022/07/22 08:40:27;;;;;;;6.40;5.85;;;;;;;37.64;37.39;101032.08;1648923;85;20903;-78
2022/07/22 08:42:54;;;;;;;6.60;6.00;;;;;;;37.61;37.15;101034.31;1624610;87;20922;-78
2022/07/22 08:45:20;;;;;;;;;;;;;;;37.49;37.22;101031.79;1603247;87;21548;-78
2022/07/22 08:47:50;;;;;;;5.92;5.40;;;;;;;37.57;37.24;101031.67;1602511;87;20181;-78
2022/07/22 08:50:17;;;;;;;5.85;5.37;;;;;;;37.45;37.04;101041.61;1687191;83;20914;-78
2022/07/22 08:52:43;;;;;;;5.60;5.20;;;;;;;37.31;36.83;101034.41;1670721;83;20925;-78
2022/07/22 08:55:10;;;;;;;6.03;5.20;;;;;;;37.23;36.66;101039.08;1681418;83;20954;-78
2022/07/22 08:57:39;;;;;;;8.38;5.97;;;;;;;37.01;36.36;101033.58;1684263;83;20898;-78
2022/07/22 09:00:15;;;;;;;5.62;5.22;;;;;;;36.32;35.80;101038.88;1689014;84;20923;-78
2022/07/22 09:02:43;;;;;;;7.83;6.12;;;;;;;35.85;35.82;101035.88;1632556;86;20918;-77
2022/07/22 09:05:13;;;;;;;6.08;5.37;;;;;;;35.57;35.80;101026.09;1620611;86;20936;-77
2022/07/22 09:07:43;;;;;;;5.87;5.47;;;;;;;35.37;35.75;101030.23;1674874;84;20867;-76
2022/07/22 09:10:13;;;;;;;6.85;6.10;;;;;;;35.10;35.72;101038.25;1624706;87;20958;-77
2022/07/22 09:12:58;;;;;;;5.90;5.53;;;;;;;34.83;35.72;101033.63;1685030;83;20933;-77
2022/07/22 09:15:37;;;;;;;5.43;5.07;;;;;;;34.50;35.63;101037.37;1691245;83;20875;-77
2022/07/22 09:18:05;;;;;;;6.37;5.85;;;;;;;34.10;35.63;101028.83;1680021;83;20982;-77
2022/07/22 09:20:34;;;;;;;6.33;5.83;;;;;;;33.80;35.69;101028.45;1646254;85;21085;-77
2022/07/22 09:23:01;;;;;;;5.83;5.33;;;;;;;33.57;35.67;101017.17;1628250;87;21713;-77
2022/07/22 09:25:35;;;;;;;;;;;;;;;33.36;35.72;101019.78;1650227;86;20922;-77
2022/07/22 09:28:12;;;;;;;6.15;5.62;;;;;;;33.11;35.98;101018.01;1619564;87;20111;-77
2022/07/22 09:30:44;;;;;;;6.72;6.15;;;;;;;32.92;35.88;101021.77;1646687;85;20913;-77
2022/07/22 09:33:10;;;;;;;6.78;5.85;;;;;;;32.78;35.87;101016.50;1679229;83;20962;-77
2022/07/22 09:35:39;;;;;;;6.22;5.62;;;;;;;32.62;35.94;101015.05;1644628;85;20899;-77
2022/07/22 09:38:11;;;;;;;7.15;6.45;;;;;;;32.49;35.99;101018.65;1609434;87;21000;-77
2022/07/22 09:40:46;;;;;;;6.78;6.17;;;;;;;32.42;36.03;101017.59;1612754;87;20954;-77
2022/07/22 09:43:17;;;;;;;7.83;6.47;;;;;;;32.38;36.10;101022.41;1673243;83;20950;-77
2022/07/22 09:46:04;;;;;;;7.05;6.10;;;;;;;32.33;36.14;101025.22;1669753;85;20948;-77
2022/07/22 09:48:22;;;;;;;7.35;6.75;;;;;;;32.21;36.19;101024.62;1639772;84;21087;-77
2022/07/22 09:50:51;;;;;;;6.17;5.70;;;;;;;32.01;36.31;101020.42;1643668;86;20913;-77
2022/07/22 09:53:20;;;;;;;7.20;6.60;;;;;;;31.86;36.42;101016.94;1695609;83;20911;-77
2022/07/22 09:55:47;;;;;;;7.08;6.42;;;;;;;31.74;36.54;101019.98;1702190;83;20938;-77
2022/07/22 09:58:14;;;;;;;7.37;6.62;;;;;;;31.60;36.68;101023.53;1711609;82;20926;-77
2022/07/22 10:00:42;;;;;;;8.15;6.67;;;;;;;31.43;36.73;101027.50;1702169;83;21077;-77
2022/07/22 10:03:18;;;;;;;9.65;6.85;;;;;;;31.31;36.86;101019.33;1696192;83;21426;-77
2022/07/22 10:05:47;;;;;;;7.17;6.58;;;;;;;31.31;37.12;101020.17;1705341;83;21037;-77
2022/07/22 10:08:13;;;;;;;7.45;6.85;;;;;;;31.37;37.21;101019.58;1673877;83;21581;-77
2022/07/22 10:10:39;;;;;;;7.00;6.40;;;;;;;31.28;37.15;101013.79;1698808;83;21546;-77
2022/07/22 10:13:08;;;;;;;7.78;6.90;;;;;;;31.12;37.29;101026.95;1682196;83;21059;-77
2022/07/22 10:15:35;;;;;;;7.28;6.67;;;;;;;30.95;37.39;101018.71;1709766;82;21048;-77
2022/07/22 10:18:08;;;;;;;6.97;6.37;;;;;;;30.88;37.62;101016.77;1671167;83;21049;-77
2022/07/22 10:20:36;;;;;;;7.03;6.33;;;;;;;30.82;37.64;101018.20;1704329;83;20974;-76
2022/07/22 10:23:08;;;;;;;8.70;7.62;;;;;;;30.71;37.76;101030.88;1695401;83;21158;-76
2022/07/22 10:25:58;;;;;;;7.75;6.92;;;;;;;30.61;37.82;101026.43;1639011;85;20986;-77
2022/07/22 10:28:37;;;;;;;7.28;6.58;;;;;;;30.50;37.89;101025.22;1644910;85;21340;-79
2022/07/22 10:31:23;;;;;;;5.60;5.20;;;;;;;30.44;38.05;101011.61;1698775;83;20954;-79
2022/07/22 10:33:54;;;;;;;8.95;6.78;;;;;;;30.43;38.13;101005.92;1698621;83;20928;-79
2022/07/22 10:36:42;;;;;;;7.72;6.22;;;;;;;30.43;38.20;101005.92;1701966;83;20953;-79
2022/07/22 10:39:13;;;;;;;5.75;5.35;;;;;;;30.52;38.37;101020.58;1702505;83;21093;-79
2022/07/22 10:41:45;;;;;;;5.92;5.42;;;;;;;30.68;38.43;101003.13;1692145;83;21027;-79
2022/07/22 10:44:12;;;;;;;5.40;4.90;;;;;;;30.75;38.42;101009.08;1702491;83;20920;-79
2022/07/22 10:46:52;;;;;;;8.65;5.62;;;;;;;30.79;38.44;101007.80;1715450;83;20962;-79
2022/07/22 10:49:24;;;;;;;5.85;5.25;;;;;;;30.82;38.44;101008.84;1701215;83;20935;-79
2022/07/22 10:52:16;;;;;;;6.28;5.45;;;;;;;30.84;38.48;101006.87;1703312;83;20894;-79
2022/07/22 10:55:20;;;;;;;6.00;5.40;;;;;;;30.72;38.49;101010.70;1658448;85;20934;-79
2022/07/22 10:57:48;;;;;;;6.85;4.70;;;;;;;30.65;38.47;101008.30;1660160;85;20966;-79
2022/07/22 11:00:15;;;;;;;4.90;4.50;;;;;;;30.67;38.54;101007.66;1651779;85;20909;-79
2022/07/22 11:02:41;;;;;;;;;;;;;;;30.69;38.50;101004.32;1625398;86;20974;-79
2022/07/22 11:05:08;;;;;;;6.08;4.47;;;;;;;30.71;38.37;101007.69;1650241;84;20207;-79
2022/07/22 11:07:43;;;;;;;5.37;4.78;;;;;;;30.72;38.40;101011.20;1649939;85;21116;-79
2022/07/22 11:10:16;;;;;;;5.47;5.00;;;;;;;30.76;38.28;100997.91;1646451;85;21089;-79
2022/07/22 11:12:42;;;;;;;4.97;4.58;;;;;;;30.78;38.30;101007.45;1626879;86;20990;-79
2022/07/22 11:15:09;;;;;;;5.53;5.03;;;;;;;30.84;38.22;101004.70;1622469;87;21149;-79
2022/07/22 11:17:38;;;;;;;5.47;5.00;;;;;;;30.80;38.14;100996.14;1680875;84;20938;-79
2022/07/22 11:20:23;;;;;;;5.10;4.58;;;;;;;30.79;38.11;100996.28;1661125;84;20950;-80
2022/07/22 11:23:08;;;;;;;4.78;4.37;;;;;;;30.83;38.16;100995.84;1673954;83;20962;-80
2022/07/22 11:25:56;;;;;;;4.92;4.53;;;;;;;30.93;38.09;100999.32;1685556;83;20934;-80